Time;durP1;ratioP1;P1;durP2;ratioP2;P2;SDS_P1;SDS_P2;PMS_P1;PMS_P2;Temp;Humidity;BMP_temperature;BMP_pressure;BME280_temperature;BME280_humidity;BME280_pressure;Samples;Min_cycle;Max_cycle;Signal;HPM_P1;HPM_P2
2023/09/27 00:00:55;;;;;;;15.45;12.15;;;15.70;93.10;;;;;;5018792;28;20133;-78
2023/09/27 00:03:20;;;;;;;14.35;12.35;;;15.70;93.10;;;;;;5015655;28;20132;-78
2023/09/27 00:05:46;;;;;;;15.85;12.57;;;15.60;93.10;;;;;;5012654;28;20121;-74
2023/09/27 00:08:12;;;;;;;14.20;12.70;;;15.60;93.10;;;;;;5012980;28;20684;-76
2023/09/27 00:10:38;;;;;;;15.38;12.63;;;15.60;93.10;;;;;;5020930;28;20551;-74
2023/09/27 00:13:03;;;;;;;16.23;12.60;;;15.60;93.10;;;;;;5013090;28;20125;-76
2023/09/27 00:15:30;;;;;;;17.42;12.27;;;15.60;93.10;;;;;;5014870;28;20530;-75
2023/09/27 00:17:56;;;;;;;14.52;11.77;;;15.60;93.10;;;;;;5017075;28;20449;-77
2023/09/27 00:20:22;;;;;;;14.32;11.95;;;15.60;93.00;;;;;;5017892;28;20080;-77
2023/09/27 00:22:47;;;;;;;16.20;13.95;;;15.50;93.00;;;;;;5014535;28;20056;-76
2023/09/27 00:25:14;;;;;;;14.85;13.05;;;15.40;93.10;;;;;;5014500;28;20041;-75
2023/09/27 00:27:41;;;;;;;14.65;12.68;;;15.50;93.20;;;;;;5014820;28;20029;-76
2023/09/27 00:30:09;;;;;;;16.33;12.43;;;15.50;93.40;;;;;;5015265;28;20061;-76
2023/09/27 00:32:35;;;;;;;14.15;12.65;;;15.40;93.30;;;;;;5016512;28;20033;-79
2023/09/27 00:35:01;;;;;;;14.40;11.75;;;15.40;93.20;;;;;;5016121;28;20036;-76
2023/09/27 00:37:27;;;;;;;18.10;13.75;;;15.40;93.30;;;;;;5021336;28;20061;-76
2023/09/27 00:39:55;;;;;;;14.65;13.07;;;15.30;93.30;;;;;;5017378;28;20303;-75
2023/09/27 00:42:20;;;;;;;14.90;12.88;;;15.30;93.30;;;;;;5017048;28;20030;-76
2023/09/27 00:44:46;;;;;;;15.35;13.30;;;15.30;93.10;;;;;;5017668;28;20415;-75
2023/09/27 00:47:12;;;;;;;16.88;13.18;;;15.20;93.10;;;;;;5020815;28;20025;-80
2023/09/27 00:49:39;;;;;;;16.60;13.18;;;15.10;93.10;;;;;;5021141;28;20051;-77
2023/09/27 00:52:05;;;;;;;15.77;13.82;;;15.10;93.10;;;;;;5020808;28;20030;-75
2023/09/27 00:54:32;;;;;;;15.95;13.52;;;15.10;93.30;;;;;;5019728;28;20368;-77
2023/09/27 00:56:59;;;;;;;17.25;13.15;;;15.10;93.30;;;;;;5020138;28;20060;-74
2023/09/27 00:59:26;;;;;;;16.17;12.80;;;15.10;93.50;;;;;;5016808;28;20792;-76
2023/09/27 01:01:53;;;;;;;14.90;12.35;;;15.10;93.60;;;;;;5016973;28;20034;-79
2023/09/27 01:04:19;;;;;;;14.43;12.93;;;15.10;93.60;;;;;;5022519;28;20033;-76
2023/09/27 01:06:44;;;;;;;17.92;14.10;;;15.10;93.70;;;;;;5020919;28;20079;-76
2023/09/27 01:09:11;;;;;;;17.35;13.48;;;15.10;93.80;;;;;;5019882;28;20435;-77
2023/09/27 01:11:38;;;;;;;14.45;12.90;;;15.10;93.60;;;;;;5017384;28;20045;-77
2023/09/27 01:14:04;;;;;;;14.50;12.90;;;15.10;93.60;;;;;;5017721;28;20029;-74
2023/09/27 01:16:30;;;;;;;14.68;13.00;;;15.10;93.60;;;;;;5012776;28;20060;-75
2023/09/27 01:19:04;;;;;;;15.35;12.02;;;15.10;93.60;;;;;;5019169;28;20038;-74
2023/09/27 01:21:31;;;;;;;17.70;12.90;;;15.10;93.40;;;;;;5013041;28;20041;-76
2023/09/27 01:23:57;;;;;;;14.85;13.13;;;15.00;93.40;;;;;;5020538;28;20164;-78
2023/09/27 01:26:23;;;;;;;18.20;13.00;;;15.00;93.40;;;;;;5021526;28;20055;-75
2023/09/27 01:28:50;;;;;;;17.23;14.07;;;15.00;93.30;;;;;;5020502;28;20036;-76
2023/09/27 01:31:15;;;;;;;16.55;13.70;;;14.90;93.30;;;;;;5012878;28;20494;-79
2023/09/27 01:33:41;;;;;;;16.73;14.88;;;14.90;93.40;;;;;;5019646;28;20187;-75
2023/09/27 01:36:07;;;;;;;15.77;13.35;;;14.90;93.60;;;;;;5019885;28;20124;-73
2023/09/27 01:38:33;;;;;;;17.02;14.25;;;14.90;93.70;;;;;;5017530;28;20037;-75
2023/09/27 01:40:59;;;;;;;16.08;14.13;;;14.90;93.80;;;;;;5022121;28;20044;-74
2023/09/27 01:43:25;;;;;;;17.38;13.80;;;14.90;93.90;;;;;;5023227;28;20037;-79
2023/09/27 01:45:51;;;;;;;16.60;13.25;;;14.90;93.90;;;;;;5018186;28;20048;-76
2023/09/27 01:48:18;;;;;;;16.17;13.60;;;14.90;93.80;;;;;;5021495;28;20487;-81
2023/09/27 01:50:44;;;;;;;15.48;13.40;;;14.80;93.70;;;;;;5014023;28;20040;-81
2023/09/27 01:53:10;;;;;;;14.13;12.43;;;14.80;93.60;;;;;;5020818;28;20505;-75
2023/09/27 01:55:35;;;;;;;15.82;12.70;;;14.80;93.70;;;;;;5016383;28;20107;-76
2023/09/27 01:58:02;;;;;;;15.95;13.32;;;15.00;93.30;;;;;;5020276;28;20046;-75
2023/09/27 02:00:28;;;;;;;14.35;12.85;;;14.80;93.40;;;;;;5021535;28;20153;-75
2023/09/27 02:02:58;;;;;;;15.77;12.98;;;14.80;93.50;;;;;;5018753;28;20017;-78
2023/09/27 02:05:25;;;;;;;17.05;13.65;;;14.80;93.70;;;;;;5019139;28;20137;-79
2023/09/27 02:07:51;;;;;;;15.57;13.90;;;14.80;93.80;;;;;;5011088;28;20021;-76
2023/09/27 02:10:18;;;;;;;15.63;13.85;;;14.80;93.90;;;;;;5013639;28;21200;-77
2023/09/27 02:12:44;;;;;;;14.93;13.15;;;14.80;94.00;;;;;;5015378;28;20028;-77
2023/09/27 02:15:12;;;;;;;17.02;13.63;;;14.70;93.80;;;;;;5018353;28;20048;-76
2023/09/27 02:17:39;;;;;;;14.45;12.73;;;14.70;93.90;;;;;;5014435;28;20108;-78
2023/09/27 02:20:07;;;;;;;17.83;14.65;;;14.70;93.90;;;;;;5020757;28;20067;-79
2023/09/27 02:22:36;;;;;;;17.13;13.55;;;14.70;94.00;;;;;;5014713;28;20893;-77
2023/09/27 02:25:01;;;;;;;17.52;13.77;;;14.70;94.00;;;;;;5016800;28;20053;-76
2023/09/27 02:27:27;;;;;;;18.05;14.57;;;14.70;93.80;;;;;;5020298;28;20064;-79
2023/09/27 02:29:53;;;;;;;16.48;14.15;;;14.60;93.60;;;;;;5018276;28;20041;-80
2023/09/27 02:32:18;;;;;;;17.67;13.20;;;14.60;93.80;;;;;;5021269;28;20053;-77
2023/09/27 02:34:45;;;;;;;15.70;13.60;;;14.60;93.90;;;;;;5016917;28;20112;-78
2023/09/27 02:37:10;;;;;;;17.10;13.25;;;14.60;94.00;;;;;;5015226;28;20022;-78
2023/09/27 02:39:36;;;;;;;15.55;12.75;;;14.60;93.90;;;;;;5006059;28;20384;-76
2023/09/27 02:42:03;;;;;;;13.90;12.40;;;14.60;93.80;;;;;;5012485;28;20029;-78
2023/09/27 02:44:29;;;;;;;15.23;12.98;;;14.60;93.80;;;;;;5018222;28;20456;-79
2023/09/27 02:46:55;;;;;;;14.32;12.82;;;14.60;93.90;;;;;;5018473;28;20025;-77
2023/09/27 02:49:21;;;;;;;16.52;13.00;;;14.60;93.90;;;;;;5017432;28;20623;-75
2023/09/27 02:51:49;;;;;;;16.10;13.90;;;14.60;94.00;;;;;;5013322;28;20106;-75
2023/09/27 02:54:15;;;;;;;15.50;13.40;;;14.60;94.00;;;;;;5014543;28;20037;-78
2023/09/27 02:56:43;;;;;;;16.90;13.27;;;14.70;93.90;;;;;;5018433;28;20046;-77
2023/09/27 02:59:10;;;;;;;16.63;14.25;;;14.60;93.80;;;;;;5012584;28;20153;-74
2023/09/27 03:01:40;;;;;;;16.15;14.13;;;14.60;93.90;;;;;;5014115;28;20113;-74
2023/09/27 03:04:06;;;;;;;15.82;14.20;;;14.60;93.90;;;;;;5018332;28;20041;-79
2023/09/27 03:06:33;;;;;;;15.70;13.27;;;14.60;93.90;;;;;;5009848;28;20468;-78
2023/09/27 03:08:58;;;;;;;16.83;14.90;;;14.60;94.00;;;;;;5030000;28;20021;-80
2023/09/27 03:11:24;;;;;;;16.05;13.65;;;14.70;94.10;;;;;;5036798;28;20030;-81
2023/09/27 03:13:50;;;;;;;15.32;12.98;;;14.60;94.20;;;;;;5029735;28;20076;-80
2023/09/27 03:16:16;;;;;;;15.85;14.13;;;14.70;94.10;;;;;;5010359;28;20041;-77
2023/09/27 03:18:42;;;;;;;14.90;13.13;;;14.70;94.00;;;;;;5018132;28;20462;-76
2023/09/27 03:21:07;;;;;;;15.43;13.25;;;14.60;94.00;;;;;;5011677;28;20500;-77
2023/09/27 03:23:33;;;;;;;15.18;13.55;;;14.60;94.10;;;;;;5020042;28;20514;-76
2023/09/27 03:25:59;;;;;;;16.77;13.48;;;14.60;94.10;;;;;;5015400;28;20045;-75
2023/09/27 03:28:24;;;;;;;16.48;13.82;;;14.60;94.10;;;;;;5020328;28;20037;-74
2023/09/27 03:30:50;;;;;;;20.23;13.25;;;14.60;94.20;;;;;;5008955;28;20048;-76
2023/09/27 03:33:16;;;;;;;16.23;14.15;;;14.60;94.30;;;;;;5019913;28;20068;-78
2023/09/27 03:35:42;;;;;;;15.35;12.95;;;14.60;94.30;;;;;;5017937;28;20484;-74
2023/09/27 03:38:08;;;;;;;16.52;14.60;;;14.60;94.30;;;;;;5019262;28;20038;-74
2023/09/27 03:40:34;;;;;;;16.02;13.30;;;14.60;94.30;;;;;;5012046;28;20102;-79
2023/09/27 03:42:59;;;;;;;15.73;13.50;;;14.60;94.30;;;;;;5017895;28;20045;-74
2023/09/27 03:45:25;;;;;;;16.25;13.88;;;14.60;94.30;;;;;;5013420;28;20034;-78
2023/09/27 03:47:51;;;;;;;16.05;13.80;;;14.60;94.30;;;;;;5003223;28;20026;-74
2023/09/27 03:50:17;;;;;;;18.15;14.45;;;14.60;94.20;;;;;;5018599;28;20064;-77
2023/09/27 03:52:43;;;;;;;15.23;13.30;;;14.60;94.30;;;;;;5018466;28;20493;-78
2023/09/27 03:55:10;;;;;;;15.85;14.10;;;14.50;94.30;;;;;;5018186;28;20380;-75
2023/09/27 03:57:36;;;;;;;18.75;15.07;;;14.50;94.30;;;;;;5019075;28;20719;-77
2023/09/27 04:00:06;;;;;;;17.13;14.98;;;14.50;94.20;;;;;;5012318;28;20034;-79
2023/09/27 04:02:32;;;;;;;15.77;14.00;;;14.40;94.20;;;;;;5018068;28;20491;-81
2023/09/27 04:04:58;;;;;;;15.98;14.15;;;14.40;94.20;;;;;;5018481;28;20076;-74
2023/09/27 04:07:24;;;;;;;14.88;12.95;;;14.40;94.20;;;;;;5023836;28;20014;-79
2023/09/27 04:09:50;;;;;;;16.52;14.55;;;14.40;94.10;;;;;;5021200;28;20044;-77
2023/09/27 04:12:15;;;;;;;17.17;14.18;;;14.30;94.00;;;;;;5021731;28;20116;-76
2023/09/27 04:14:41;;;;;;;17.58;14.32;;;14.30;94.10;;;;;;5017664;28;20045;-77
2023/09/27 04:17:07;;;;;;;15.50;13.43;;;14.30;94.20;;;;;;5016127;28;20080;-76
2023/09/27 04:19:33;;;;;;;17.20;13.85;;;14.20;94.20;;;;;;5018315;28;20044;-75
2023/09/27 04:21:59;;;;;;;18.40;13.75;;;14.20;94.20;;;;;;5020080;28;20026;-77
2023/09/27 04:24:26;;;;;;;15.65;12.90;;;14.20;94.30;;;;;;5021737;28;20149;-74
2023/09/27 04:26:53;;;;;;;15.70;13.45;;;14.20;94.20;;;;;;5019444;28;20033;-78
2023/09/27 04:29:19;;;;;;;16.70;14.13;;;14.10;94.20;;;;;;5019216;28;20040;-76
2023/09/27 04:31:45;;;;;;;17.60;13.65;;;14.10;94.20;;;;;;5022326;28;20025;-75
2023/09/27 04:34:11;;;;;;;17.90;15.43;;;14.10;94.10;;;;;;5019086;28;20041;-80
2023/09/27 04:36:37;;;;;;;19.17;15.98;;;14.10;94.10;;;;;;5019684;28;20395;-77
2023/09/27 04:39:11;;;;;;;17.42;15.55;;;14.10;94.10;;;;;;5011693;28;20034;-76
2023/09/27 04:41:36;;;;;;;16.58;14.88;;;14.10;94.10;;;;;;5009956;28;20033;-78
2023/09/27 04:44:02;;;;;;;17.02;14.93;;;14.10;94.20;;;;;;5010247;28;20472;-78
2023/09/27 04:46:28;;;;;;;18.73;15.50;;;14.10;94.20;;;;;;5012205;28;20044;-75
2023/09/27 04:48:54;;;;;;;18.35;14.13;;;14.10;94.30;;;;;;5014373;28;20460;-79
2023/09/27 04:51:19;;;;;;;18.08;14.93;;;14.00;94.30;;;;;;5008302;28;20030;-75
2023/09/27 04:53:45;;;;;;;20.45;13.65;;;14.00;94.40;;;;;;5007641;28;20601;-75
2023/09/27 04:56:11;;;;;;;19.02;15.48;;;14.00;94.40;;;;;;5009074;28;20076;-76
2023/09/27 04:58:38;;;;;;;15.75;13.90;;;14.00;94.40;;;;;;5012629;28;20045;-76
2023/09/27 05:01:05;;;;;;;19.15;15.80;;;13.90;94.40;;;;;;5018343;28;20034;-75
2023/09/27 05:03:31;;;;;;;18.30;15.50;;;13.90;94.40;;;;;;5018207;28;20045;-79
2023/09/27 05:05:57;;;;;;;18.15;15.10;;;13.90;94.60;;;;;;5019823;28;20041;-76
2023/09/27 05:08:24;;;;;;;16.45;14.57;;;13.90;94.70;;;;;;5018325;28;21664;-83
2023/09/27 05:10:51;;;;;;;20.92;16.70;;;13.90;94.70;;;;;;5019555;28;20061;-79
2023/09/27 05:13:20;;;;;;;24.08;16.73;;;13.90;94.70;;;;;;5014048;28;20966;-77
2023/09/27 05:15:56;;;;;;;18.88;16.00;;;13.90;94.80;;;;;;5004248;28;20041;-77
2023/09/27 05:18:22;;;;;;;18.60;16.10;;;13.90;95.00;;;;;;5005175;28;20060;-79
2023/09/27 05:20:48;;;;;;;22.15;16.70;;;14.00;94.90;;;;;;5007363;28;20025;-82
2023/09/27 05:23:14;;;;;;;21.42;16.95;;;13.90;94.90;;;;;;5012253;28;20041;-76
2023/09/27 05:25:40;;;;;;;19.17;17.15;;;13.90;94.90;;;;;;5016153;28;20053;-82
2023/09/27 05:28:06;;;;;;;21.30;18.48;;;13.90;94.90;;;;;;5015861;28;20732;-78
2023/09/27 05:30:32;;;;;;;25.95;20.90;;;14.00;95.10;;;;;;5016318;28;20036;-77
2023/09/27 05:32:57;;;;;;;27.63;24.52;;;13.90;95.10;;;;;;5014110;28;20037;-76
2023/09/27 05:35:23;;;;;;;27.90;24.83;;;13.90;95.20;;;;;;5019163;28;20068;-76
2023/09/27 05:37:50;;;;;;;26.17;23.20;;;13.90;95.30;;;;;;5012740;28;20660;-77
2023/09/27 05:40:16;;;;;;;25.95;22.73;;;14.00;95.40;;;;;;5024291;28;20064;-77
2023/09/27 05:42:42;;;;;;;26.60;23.67;;;14.00;95.50;;;;;;5010829;28;20037;-80
2023/09/27 05:45:11;;;;;;;24.58;21.92;;;14.10;95.50;;;;;;5014642;28;20096;-81
2023/09/27 05:47:38;;;;;;;24.92;22.42;;;14.10;95.60;;;;;;5019963;28;20021;-79
2023/09/27 05:50:04;;;;;;;27.00;22.52;;;14.10;95.60;;;;;;5019040;28;20373;-75
2023/09/27 05:52:31;;;;;;;25.27;22.65;;;14.10;95.60;;;;;;5018733;28;20033;-77
2023/09/27 05:54:57;;;;;;;27.02;23.23;;;14.10;95.60;;;;;;5015306;28;20107;-77
2023/09/27 05:57:23;;;;;;;26.25;23.50;;;14.10;95.50;;;;;;5017807;28;20029;-75
2023/09/27 05:59:49;;;;;;;26.17;23.27;;;14.10;95.60;;;;;;5016284;28;20132;-76
2023/09/27 06:02:19;;;;;;;25.63;22.33;;;14.20;95.50;;;;;;5015611;28;20120;-75
2023/09/27 06:04:48;;;;;;;26.48;22.48;;;14.20;95.40;;;;;;5016107;28;20037;-75
2023/09/27 06:07:15;;;;;;;25.55;23.02;;;14.20;95.40;;;;;;5014583;28;20029;-75
2023/09/27 06:09:41;;;;;;;27.02;24.15;;;14.30;95.50;;;;;;5014697;28;20529;-77
2023/09/27 06:12:07;;;;;;;26.02;23.23;;;14.30;95.50;;;;;;5019716;28;20028;-75
2023/09/27 06:14:34;;;;;;;33.67;25.75;;;14.40;95.50;;;;;;5010897;28;20514;-78
2023/09/27 06:17:01;;;;;;;29.38;25.80;;;14.50;95.50;;;;;;5018905;28;20072;-74
2023/09/27 06:19:26;;;;;;;26.45;23.63;;;14.50;95.40;;;;;;5019005;28;20033;-74
2023/09/27 06:21:52;;;;;;;32.80;26.63;;;14.50;95.40;;;;;;5016961;28;20025;-76
2023/09/27 06:24:18;;;;;;;29.90;26.75;;;14.50;95.40;;;;;;5017972;28;20053;-74
2023/09/27 06:26:43;;;;;;;29.02;26.13;;;14.60;95.50;;;;;;5012448;28;20424;-76
2023/09/27 06:29:09;;;;;;;26.70;23.83;;;14.60;95.50;;;;;;5018018;28;20037;-76
2023/09/27 06:31:35;;;;;;;29.50;24.92;;;14.70;95.60;;;;;;5015670;28;20049;-75
2023/09/27 06:34:01;;;;;;;29.45;25.30;;;14.70;95.50;;;;;;5015874;28;20148;-77
2023/09/27 06:36:29;;;;;;;26.45;23.65;;;14.80;95.50;;;;;;5014448;28;20595;-74
2023/09/27 06:38:56;;;;;;;26.25;23.45;;;14.90;95.60;;;;;;5008746;28;20048;-75
2023/09/27 06:41:22;;;;;;;26.63;23.83;;;15.00;95.50;;;;;;5017071;28;20033;-76
2023/09/27 06:43:48;;;;;;;27.08;24.17;;;15.10;95.40;;;;;;5017517;28;20038;-74
2023/09/27 06:46:15;;;;;;;26.58;23.83;;;15.10;95.30;;;;;;5012996;28;20483;-73
2023/09/27 06:48:41;;;;;;;24.63;22.05;;;15.20;95.30;;;;;;5019685;28;20510;-77
2023/09/27 06:51:07;;;;;;;26.60;23.75;;;15.20;95.20;;;;;;5019803;28;20025;-74
2023/09/27 06:53:33;;;;;;;26.23;23.48;;;15.20;95.20;;;;;;5021072;28;20525;-74
2023/09/27 06:55:59;;;;;;;25.88;22.65;;;15.30;95.10;;;;;;5015106;28;20077;-76
2023/09/27 06:58:25;;;;;;;24.55;22.05;;;15.30;95.10;;;;;;5016625;28;20045;-74
2023/09/27 07:00:54;;;;;;;24.85;22.30;;;15.30;95.10;;;;;;5018721;28;20045;-77
2023/09/27 07:03:24;;;;;;;21.98;19.58;;;15.40;95.10;;;;;;5015790;28;20045;-76
2023/09/27 07:05:51;;;;;;;27.88;24.88;;;15.40;95.10;;;;;;5022500;28;20089;-75
2023/09/27 07:08:17;;;;;;;26.98;24.08;;;15.40;95.00;;;;;;5021865;28;20035;-74
2023/09/27 07:10:44;;;;;;;27.10;24.38;;;15.40;95.00;;;;;;5018095;28;20110;-74
2023/09/27 07:13:09;;;;;;;27.33;24.52;;;15.50;95.00;;;;;;5019770;28;20033;-74
2023/09/27 07:15:36;;;;;;;28.15;23.70;;;15.60;94.90;;;;;;5015014;28;20041;-74
2023/09/27 07:18:03;;;;;;;26.05;23.35;;;15.60;94.70;;;;;;5014474;28;20365;-73
2023/09/27 07:20:34;;;;;;;27.88;24.27;;;15.60;94.60;;;;;;5015077;28;20030;-75
2023/09/27 07:23:03;;;;;;;26.50;22.60;;;15.60;94.60;;;;;;5018688;28;20057;-74
2023/09/27 07:25:32;;;;;;;24.38;21.85;;;15.60;94.60;;;;;;5019438;28;20514;-77
2023/09/27 07:28:03;;;;;;;25.38;22.85;;;15.60;94.70;;;;;;5022231;28;20042;-75
2023/09/27 07:30:29;;;;;;;29.63;24.70;;;15.70;94.70;;;;;;5016298;28;20372;-76
2023/09/27 07:32:56;;;;;;;26.08;22.63;;;15.80;94.70;;;;;;5022991;28;20518;-75
2023/09/27 07:35:23;;;;;;;28.40;25.65;;;15.80;94.70;;;;;;5018457;28;20128;-75
2023/09/27 07:37:50;;;;;;;28.42;25.38;;;15.80;94.60;;;;;;5016761;28;20497;-74
2023/09/27 07:40:17;;;;;;;29.25;26.33;;;15.90;94.60;;;;;;5011034;28;20064;-75
2023/09/27 07:42:44;;;;;;;31.60;28.02;;;16.00;94.50;;;;;;5022701;28;20210;-74
2023/09/27 07:45:20;;;;;;;28.30;25.40;;;16.00;94.40;;;;;;5011044;28;20066;-74
2023/09/27 07:47:53;;;;;;;29.27;26.20;;;16.10;94.40;;;;;;5014929;28;20116;-73
2023/09/27 07:50:21;;;;;;;29.17;25.63;;;16.10;94.50;;;;;;5020614;28;20041;-73
2023/09/27 07:52:47;;;;;;;28.63;25.60;;;16.10;94.40;;;;;;5020391;28;20018;-74
2023/09/27 07:55:14;;;;;;;30.52;27.27;;;16.10;94.40;;;;;;5014769;28;20837;-73
2023/09/27 07:57:43;;;;;;;28.10;25.23;;;16.20;94.50;;;;;;5010313;28;20034;-73
2023/09/27 08:00:10;;;;;;;29.83;26.63;;;16.30;94.50;;;;;;5010603;28;20034;-74
2023/09/27 08:02:38;;;;;;;32.42;29.10;;;16.40;94.50;;;;;;5010418;28;20933;-72
2023/09/27 08:05:09;;;;;;;32.38;28.63;;;16.40;93.80;;;;;;5012737;28;20156;-73
2023/09/27 08:07:38;;;;;;;35.35;31.75;;;16.60;94.10;;;;;;5011936;28;20021;-75
2023/09/27 08:10:06;;;;;;;33.35;29.80;;;16.60;93.90;;;;;;5013067;28;20183;-74
2023/09/27 08:12:34;;;;;;;34.63;31.00;;;16.70;93.60;;;;;;5015278;28;20022;-73
2023/09/27 08:15:00;;;;;;;31.85;28.60;;;16.90;93.70;;;;;;5015499;28;20133;-76
2023/09/27 08:17:26;;;;;;;32.25;28.95;;;17.00;93.40;;;;;;5018519;28;20335;-73
2023/09/27 08:19:52;;;;;;;31.30;28.20;;;17.10;93.40;;;;;;5021385;28;20388;-73
2023/09/27 08:22:19;;;;;;;35.28;29.10;;;17.20;93.50;;;;;;5016757;28;20487;-75
2023/09/27 08:24:44;;;;;;;32.13;27.90;;;17.40;93.20;;;;;;5019843;28;20068;-72
2023/09/27 08:27:11;;;;;;;33.90;29.08;;;17.60;92.40;;;;;;5019509;28;20080;-74
2023/09/27 08:29:36;;;;;;;38.05;29.13;;;17.70;92.20;;;;;;5020652;28;20168;-75
2023/09/27 08:32:02;;;;;;;34.92;27.80;;;17.80;91.40;;;;;;5017496;28;20108;-75
2023/09/27 08:34:28;;;;;;;34.50;28.17;;;17.70;91.30;;;;;;5019743;28;20037;-72
2023/09/27 08:36:53;;;;;;;29.55;26.17;;;17.60;91.40;;;;;;5021913;28;20025;-73
2023/09/27 08:39:19;;;;;;;29.98;26.02;;;17.70;91.90;;;;;;5018503;28;20399;-73
2023/09/27 08:41:45;;;;;;;29.63;26.63;;;18.00;91.60;;;;;;5017236;28;20052;-75
2023/09/27 08:44:13;;;;;;;31.38;26.20;;;18.10;91.20;;;;;;5017195;28;20065;-74
2023/09/27 08:46:40;;;;;;;27.60;24.75;;;18.30;90.80;;;;;;5015687;28;20146;-74
2023/09/27 08:49:08;;;;;;;29.75;24.60;;;18.50;90.70;;;;;;5016456;28;20092;-76
2023/09/27 08:51:38;;;;;;;31.75;28.25;;;18.60;90.60;;;;;;5019661;28;20098;-73
2023/09/27 08:54:04;;;;;;;27.83;24.63;;;18.60;90.40;;;;;;5020757;28;20033;-73
2023/09/27 08:56:31;;;;;;;27.98;25.15;;;18.50;91.10;;;;;;5019763;28;20100;-74
2023/09/27 08:58:58;;;;;;;30.08;26.02;;;18.90;90.40;;;;;;5019026;28;20076;-80
2023/09/27 09:01:25;;;;;;;28.17;25.27;;;19.10;89.50;;;;;;5022404;28;20484;-74
2023/09/27 09:03:52;;;;;;;29.50;26.33;;;19.00;89.30;;;;;;5022181;28;20175;-75
2023/09/27 09:06:19;;;;;;;26.35;23.73;;;19.30;89.00;;;;;;5024809;28;20132;-72
2023/09/27 09:08:46;;;;;;;30.60;26.20;;;19.40;88.90;;;;;;5020649;28;20095;-73
2023/09/27 09:11:16;;;;;;;31.08;27.65;;;19.60;88.50;;;;;;5023932;28;20136;-75
2023/09/27 09:14:04;;;;;;;27.48;24.77;;;19.70;88.10;;;;;;5022655;28;20041;-76
2023/09/27 09:16:44;;;;;;;29.98;26.92;;;19.80;87.80;;;;;;5017252;28;20034;-74
2023/09/27 09:19:24;;;;;;;28.77;25.88;;;19.90;87.60;;;;;;5016868;28;20080;-73
2023/09/27 09:22:05;;;;;;;28.00;25.10;;;20.00;87.50;;;;;;5018619;28;20029;-73
2023/09/27 09:24:35;;;;;;;27.95;25.15;;;20.10;87.30;;;;;;5022075;28;20098;-76
2023/09/27 09:27:10;;;;;;;29.85;26.75;;;20.20;87.20;;;;;;5022349;28;20017;-78
2023/09/27 09:29:45;;;;;;;27.95;24.77;;;20.20;86.90;;;;;;5015333;28;20033;-78
2023/09/27 09:32:11;;;;;;;27.63;22.10;;;20.20;86.70;;;;;;5020222;28;20383;-76
2023/09/27 09:34:41;;;;;;;25.92;20.15;;;20.30;86.70;;;;;;5020411;28;20029;-76
2023/09/27 09:37:22;;;;;;;21.80;19.20;;;20.30;85.60;;;;;;5019490;28;20420;-75
2023/09/27 09:39:50;;;;;;;19.67;17.58;;;20.30;85.00;;;;;;5021813;28;20044;-72
2023/09/27 09:42:34;;;;;;;22.10;18.23;;;19.90;85.50;;;;;;5019927;28;20352;-72
2023/09/27 09:45:10;;;;;;;20.40;18.20;;;20.00;86.10;;;;;;5018208;28;20042;-72
2023/09/27 09:47:40;;;;;;;26.98;16.52;;;20.20;85.00;;;;;;5019181;28;20030;-74
2023/09/27 09:50:29;;;;;;;21.58;19.27;;;20.40;84.90;;;;;;5024135;28;20037;-73
2023/09/27 09:52:59;;;;;;;20.60;17.23;;;20.60;83.90;;;;;;5020233;28;20422;-72
2023/09/27 09:55:29;;;;;;;23.95;18.77;;;20.60;84.50;;;;;;5019463;28;20145;-76
2023/09/27 09:58:25;;;;;;;20.92;17.50;;;20.40;84.70;;;;;;5020169;28;20036;-76
2023/09/27 10:00:54;;;;;;;19.10;16.73;;;20.60;84.80;;;;;;5016322;28;20064;-74
2023/09/27 10:03:22;;;;;;;18.10;16.17;;;20.80;84.70;;;;;;5015460;28;20048;-74
2023/09/27 10:05:50;;;;;;;16.58;14.32;;;21.20;83.30;;;;;;5015798;28;20040;-76
2023/09/27 10:08:20;;;;;;;17.83;15.93;;;21.60;82.90;;;;;;5016185;28;20042;-73
2023/09/27 10:10:46;;;;;;;16.27;14.07;;;21.60;80.50;;;;;;5021553;28;20029;-74
2023/09/27 10:13:13;;;;;;;15.98;14.27;;;21.70;80.30;;;;;;5015049;28;20046;-77
2023/09/27 10:15:40;;;;;;;18.38;14.35;;;21.60;80.30;;;;;;5016452;28;20087;-74
2023/09/27 10:18:21;;;;;;;16.00;14.00;;;21.50;80.60;;;;;;5021628;28;20140;-74
2023/09/27 10:21:05;;;;;;;16.85;14.85;;;21.80;80.30;;;;;;5014378;28;20114;-74
2023/09/27 10:24:01;;;;;;;16.07;14.33;;;22.00;80.10;;;;;;5017151;28;20053;-76
2023/09/27 10:26:26;;;;;;;18.10;13.68;;;22.00;79.80;;;;;;5019340;28;20079;-74
2023/09/27 10:29:07;;;;;;;18.67;14.63;;;21.70;79.90;;;;;;5022237;28;20499;-74
2023/09/27 10:31:36;;;;;;;15.88;13.45;;;21.70;80.20;;;;;;5017249;28;20484;-76
2023/09/27 10:34:02;;;;;;;18.48;13.13;;;21.60;80.50;;;;;;5016098;28;20675;-78
2023/09/27 10:36:30;;;;;;;14.90;11.80;;;21.70;80.10;;;;;;5017609;28;20040;-74
2023/09/27 10:38:55;;;;;;;14.55;11.75;;;21.60;79.80;;;;;;5017420;28;20053;-74
2023/09/27 10:41:34;;;;;;;17.38;13.32;;;21.60;79.80;;;;;;5021408;28;20045;-77
2023/09/27 10:44:00;;;;;;;15.07;13.00;;;21.60;80.50;;;;;;5018942;28;20073;-73
2023/09/27 10:46:26;;;;;;;15.07;11.35;;;21.70;80.60;;;;;;5019041;28;20041;-73
2023/09/27 10:48:58;;;;;;;15.85;11.32;;;21.60;80.40;;;;;;5013096;28;20045;-74
2023/09/27 10:51:26;;;;;;;17.45;10.90;;;21.60;79.20;;;;;;5022398;28;20040;-73
2023/09/27 10:53:53;;;;;;;15.40;10.85;;;21.60;79.50;;;;;;5019188;28;20045;-74
2023/09/27 10:56:19;;;;;;;13.95;10.80;;;21.80;79.70;;;;;;5011883;28;20056;-76
2023/09/27 10:58:45;;;;;;;14.88;10.18;;;21.90;79.20;;;;;;5017732;28;20037;-74
2023/09/27 11:01:11;;;;;;;13.13;9.50;;;22.10;79.50;;;;;;5019182;28;20048;-73
2023/09/27 11:03:38;;;;;;;15.52;10.63;;;22.10;79.00;;;;;;5017077;28;20029;-75
2023/09/27 11:06:14;;;;;;;15.68;10.60;;;22.40;78.10;;;;;;5020029;28;20519;-73
2023/09/27 11:08:40;;;;;;;13.57;10.55;;;22.60;76.70;;;;;;5019828;28;20030;-74
2023/09/27 11:11:11;;;;;;;12.90;9.85;;;23.00;76.70;;;;;;5018263;28;21453;-74
2023/09/27 11:13:41;;;;;;;18.83;11.07;;;23.40;76.10;;;;;;5018123;28;20045;-77
2023/09/27 11:16:13;;;;;;;15.52;9.23;;;23.80;74.80;;;;;;5015212;28;20033;-74
2023/09/27 11:18:51;;;;;;;14.25;8.10;;;24.10;74.30;;;;;;5020308;28;20045;-72
2023/09/27 11:21:17;;;;;;;12.52;7.68;;;24.40;72.90;;;;;;5016346;28;20044;-74
2023/09/27 11:24:12;;;;;;;12.48;7.68;;;24.30;72.00;;;;;;5018663;28;20045;-75
2023/09/27 11:26:43;;;;;;;9.75;7.25;;;24.40;71.20;;;;;;5013229;28;20038;-74
2023/09/27 11:29:08;;;;;;;11.18;8.05;;;24.40;70.80;;;;;;5022159;28;20479;-75
2023/09/27 11:31:38;;;;;;;12.02;7.88;;;24.50;70.70;;;;;;5016753;28;20056;-77
2023/09/27 11:34:20;;;;;;;12.18;7.53;;;24.50;70.90;;;;;;5016592;28;20041;-75
2023/09/27 11:36:47;;;;;;;12.13;7.13;;;24.50;70.40;;;;;;5016930;28;20040;-76
2023/09/27 11:39:14;;;;;;;11.02;7.07;;;24.50;69.20;;;;;;5009435;28;20030;-73
2023/09/27 11:41:41;;;;;;;14.00;7.00;;;24.70;69.50;;;;;;5012419;28;20046;-75
2023/09/27 11:44:23;;;;;;;13.73;7.07;;;25.00;68.50;;;;;;5019597;28;20095;-77
2023/09/27 11:46:49;;;;;;;9.25;6.20;;;25.10;69.20;;;;;;5016506;28;20044;-74
2023/09/27 11:49:16;;;;;;;8.30;5.55;;;25.00;66.50;;;;;;5013959;28;20052;-73
2023/09/27 11:51:42;;;;;;;12.90;5.03;;;24.60;68.50;;;;;;5014619;28;20029;-75
2023/09/27 11:54:09;;;;;;;12.38;6.10;;;24.40;69.90;;;;;;5015734;28;20487;-75
2023/09/27 11:56:36;;;;;;;11.18;6.25;;;24.30;68.70;;;;;;5018951;28;20103;-74
2023/09/27 11:59:05;;;;;;;11.93;6.30;;;24.30;69.20;;;;;;5012087;28;20488;-75
2023/09/27 12:01:31;;;;;;;9.05;5.72;;;24.30;69.10;;;;;;5018739;28;20067;-75
2023/09/27 12:03:58;;;;;;;10.73;6.50;;;24.50;68.50;;;;;;5017177;28;20045;-74
2023/09/27 12:06:25;;;;;;;8.70;5.82;;;24.50;68.10;;;;;;5019859;28;20061;-73
2023/09/27 12:08:51;;;;;;;11.23;6.10;;;24.60;69.90;;;;;;5019467;28;20038;-75
2023/09/27 12:11:17;;;;;;;10.38;6.03;;;24.70;69.10;;;;;;5025086;28;20037;-76
2023/09/27 12:13:43;;;;;;;15.10;5.97;;;24.60;69.00;;;;;;5017306;28;20040;-74
2023/09/27 12:16:09;;;;;;;9.45;5.85;;;24.60;69.20;;;;;;5015010;28;20567;-73
2023/09/27 12:18:34;;;;;;;10.82;6.15;;;24.50;69.40;;;;;;5008310;28;20516;-73
2023/09/27 12:21:00;;;;;;;11.30;7.32;;;24.50;69.10;;;;;;5013638;28;20530;-75
2023/09/27 12:23:26;;;;;;;11.18;6.43;;;24.60;68.60;;;;;;5020773;28;20404;-75
2023/09/27 12:25:52;;;;;;;11.73;6.93;;;24.60;68.80;;;;;;5022021;28;20045;-74
2023/09/27 12:28:19;;;;;;;10.13;6.88;;;24.70;68.80;;;;;;5017956;28;20180;-76
2023/09/27 12:30:45;;;;;;;13.52;7.35;;;24.60;68.70;;;;;;5020599;28;20031;-73